Time;durP1;ratioP1;P1;durP2;ratioP2;P2;SDS_P1;SDS_P2;PMS_P1;PMS_P2;Temp;Humidity;BMP_temperature;BMP_pressure;BME280_temperature;BME280_humidity;BME280_pressure;Samples;Min_cycle;Max_cycle;Signal;HPM_P1;HPM_P2
2022/04/15 00:02:01;;;;;;;19.13;13.27;;;;;;;9.00;95.45;100860.97;5052482;28;20201;-73
2022/04/15 00:04:28;;;;;;;18.80;14.57;;;;;;;9.00;95.55;100866.19;5052194;28;20212;-73
2022/04/15 00:06:55;;;;;;;17.30;14.33;;;;;;;9.04;94.83;100886.13;5052036;28;20268;-73
2022/04/15 00:09:21;;;;;;;14.83;13.40;;;;;;;9.14;94.21;100883.47;5052230;28;20620;-73
2022/04/15 00:11:49;;;;;;;13.37;12.23;;;;;;;9.33;93.45;100902.44;5052478;28;20234;-73
2022/04/15 00:14:15;;;;;;;14.47;13.37;;;;;;;9.44;92.29;100932.81;5052113;28;20252;-73
2022/04/15 00:16:43;;;;;;;15.17;13.77;;;;;;;9.40;91.38;100970.16;5052182;28;20207;-74
2022/04/15 00:19:11;;;;;;;18.00;13.87;;;;;;;9.30;91.69;100966.75;5052102;28;20263;-74
2022/04/15 00:21:38;;;;;;;16.43;14.97;;;;;;;9.49;91.70;100960.56;5052094;28;20231;-74
2022/04/15 00:24:05;;;;;;;14.63;13.43;;;;;;;9.69;91.03;100978.69;5052093;28;20202;-73
2022/04/15 00:26:32;;;;;;;16.20;14.23;;;;;;;9.79;89.94;101017.69;5052021;28;20305;-74
2022/04/15 00:29:00;;;;;;;15.77;14.47;;;;;;;9.88;88.69;101041.13;5052015;28;20233;-73
2022/04/15 00:31:26;;;;;;;20.47;15.57;;;;;;;9.78;88.54;101055.97;5051832;28;20242;-73
2022/04/15 00:33:52;;;;;;;16.90;15.20;;;;;;;9.82;88.30;101057.66;5051551;28;20545;-74
2022/04/15 00:36:19;;;;;;;17.03;15.37;;;;;;;9.80;87.86;101072.47;5052051;28;20212;-73
2022/04/15 00:38:45;;;;;;;17.63;15.50;;;;;;;9.89;87.29;101095.00;5052207;28;20264;-73
2022/04/15 00:41:14;;;;;;;17.73;15.97;;;;;;;9.85;86.98;101102.00;5052042;28;20309;-73
2022/04/15 00:43:41;;;;;;;16.90;15.13;;;;;;;9.88;86.92;101101.09;5051271;28;20208;-73
2022/04/15 00:46:10;;;;;;;16.80;15.10;;;;;;;9.70;87.46;101104.66;5082243;22;20650;-83
2022/04/15 00:48:37;;;;;;;17.23;15.63;;;;;;;9.66;87.66;101085.56;5047057;28;20732;-82
2022/04/15 00:51:03;;;;;;;16.13;14.63;;;;;;;9.68;87.91;101081.19;5055889;28;20645;-82
2022/04/15 00:53:31;;;;;;;19.37;15.60;;;;;;;9.52;88.22;101075.19;5056292;28;20772;-82
2022/04/15 00:56:01;;;;;;;16.37;14.57;;;;;;;9.59;88.15;101064.75;5055921;28;20228;-83
2022/04/15 00:58:29;;;;;;;15.90;14.50;;;;;;;9.71;88.13;101072.50;5046592;28;20231;-83
2022/04/15 01:00:57;;;;;;;19.03;14.90;;;;;;;9.77;87.39;101090.72;5056500;28;20213;-82
2022/04/15 01:03:25;;;;;;;20.00;15.27;;;;;;;9.70;87.14;101100.31;5056509;28;20709;-82
2022/04/15 01:05:57;;;;;;;19.10;16.73;;;;;;;9.65;86.72;101106.41;5056365;28;20243;-82
2022/04/15 01:08:26;;;;;;;19.57;16.23;;;;;;;9.57;86.63;101118.63;5056160;28;20214;-82
2022/04/15 01:10:55;;;;;;;18.73;16.90;;;;;;;9.56;87.05;101109.06;5056444;28;20224;-82
2022/04/15 01:13:32;;;;;;;17.27;14.43;;;;;;;9.68;87.44;101096.00;5056352;28;20578;-82
2022/04/15 01:15:59;;;;;;;16.93;14.57;;;;;;;9.67;87.41;101102.94;5056385;28;20228;-82
2022/04/15 01:18:27;;;;;;;17.60;15.63;;;;;;;9.80;87.44;101105.50;5056594;28;20209;-83
2022/04/15 01:20:54;;;;;;;16.73;15.03;;;;;;;9.88;86.85;101115.00;5055350;28;20219;-83
2022/04/15 01:23:22;;;;;;;17.97;16.00;;;;;;;9.90;86.42;101126.28;5056668;28;20206;-83
2022/04/15 01:25:51;;;;;;;19.83;17.63;;;;;;;9.78;86.51;101144.59;5056561;28;20252;-83
2022/04/15 01:28:22;;;;;;;19.80;17.90;;;;;;;9.89;86.22;101139.31;5050961;28;20214;-83
2022/04/15 01:30:50;;;;;;;19.67;17.73;;;;;;;9.68;86.93;101129.88;5073496;28;20222;-82
2022/04/15 01:33:16;;;;;;;18.80;16.80;;;;;;;9.77;85.97;101137.63;5074312;28;20207;-82
2022/04/15 01:35:43;;;;;;;20.27;17.30;;;;;;;9.79;85.67;101164.59;5073105;28;20260;-81
2022/04/15 01:38:14;;;;;;;17.63;15.93;;;;;;;9.60;84.98;101171.59;5056199;28;20224;-82
2022/04/15 01:40:45;;;;;;;19.67;16.93;;;;;;;9.00;87.01;101137.88;5053895;28;20214;-82
2022/04/15 01:43:13;;;;;;;23.60;18.83;;;;;;;9.05;88.71;101085.78;5054219;28;20212;-82
2022/04/15 01:45:40;;;;;;;19.57;17.90;;;;;;;9.00;89.05;101064.97;5053853;28;20640;-82
2022/04/15 01:48:07;;;;;;;19.77;17.97;;;;;;;9.06;89.07;101057.13;5054574;28;20208;-82
2022/04/15 01:50:36;;;;;;;19.33;17.43;;;;;;;9.27;88.91;101065.75;5055375;28;20234;-82
2022/04/15 01:53:04;;;;;;;18.93;17.10;;;;;;;9.26;88.08;101085.72;5054889;28;20210;-82
2022/04/15 01:55:30;;;;;;;18.73;17.07;;;;;;;9.01;88.30;101091.88;5054418;28;20228;-82
2022/04/15 01:57:58;;;;;;;18.27;16.47;;;;;;;9.00;89.09;101083.19;5056622;28;20223;-82
2022/04/15 02:00:25;;;;;;;16.83;15.10;;;;;;;8.84;89.09;101078.84;5057511;28;20209;-82
2022/04/15 02:02:56;;;;;;;17.50;15.90;;;;;;;8.91;89.02;101068.44;5058008;28;20564;-82
2022/04/15 02:05:23;;;;;;;16.70;15.00;;;;;;;9.01;88.93;101077.09;5058218;28;20619;-82
2022/04/15 02:07:51;;;;;;;16.47;14.80;;;;;;;9.13;88.60;101094.44;5058451;28;20254;-82
2022/04/15 02:10:17;;;;;;;15.53;14.03;;;;;;;9.14;88.39;101096.19;5059343;28;20244;-82
2022/04/15 02:12:43;;;;;;;16.33;14.73;;;;;;;9.10;88.19;101110.94;5058794;28;20230;-83
2022/04/15 02:15:13;;;;;;;14.70;13.43;;;;;;;9.11;88.26;101112.66;5059231;28;20214;-82
2022/04/15 02:17:40;;;;;;;15.93;13.67;;;;;;;9.08;88.21;101117.91;5059541;28;20215;-82
2022/04/15 02:20:10;;;;;;;15.80;14.27;;;;;;;8.89;88.61;101092.75;5059500;28;20211;-82
2022/04/15 02:22:37;;;;;;;16.83;14.00;;;;;;;9.04;88.58;101090.13;5059285;28;20240;-82
2022/04/15 02:25:07;;;;;;;16.17;14.47;;;;;;;9.24;88.90;101087.47;5058572;28;20262;-80
2022/04/15 02:27:33;;;;;;;15.53;14.03;;;;;;;9.11;88.91;101089.22;5058447;28;20259;-82
2022/04/15 02:30:00;;;;;;;15.83;14.23;;;;;;;9.13;89.04;101095.28;5059861;28;20200;-82
2022/04/15 02:32:30;;;;;;;16.53;14.93;;;;;;;9.10;88.71;101095.31;5059103;28;20223;-82
2022/04/15 02:34:56;;;;;;;16.97;14.43;;;;;;;9.03;89.56;101082.31;5058929;28;20207;-82
2022/04/15 02:37:23;;;;;;;16.53;14.87;;;;;;;9.15;89.48;101084.88;5058976;28;20359;-82
2022/04/15 02:39:50;;;;;;;19.77;15.47;;;;;;;8.62;91.10;101054.59;5058722;28;20198;-82
2022/04/15 02:42:16;;;;;;;16.23;14.73;;;;;;;8.16;93.45;101000.81;5058711;28;20227;-82
2022/04/15 02:44:42;;;;;;;18.40;16.60;;;;;;;8.23;94.87;100955.75;5058503;28;20211;-82
2022/04/15 02:47:09;;;;;;;15.10;13.80;;;;;;;8.17;94.36;100947.97;5058816;28;20232;-82
2022/04/15 02:49:37;;;;;;;14.30;13.00;;;;;;;7.95;94.65;100941.91;5058790;28;20203;-82
2022/04/15 02:52:05;;;;;;;13.03;11.60;;;;;;;7.88;94.29;100950.56;5058443;28;20227;-83
2022/04/15 02:54:31;;;;;;;12.17;10.53;;;;;;;7.93;93.64;100974.84;5058460;28;20221;-81
2022/04/15 02:56:57;;;;;;;11.93;10.70;;;;;;;8.08;92.73;100999.97;5058520;28;20597;-81
2022/04/15 02:59:24;;;;;;;10.63;9.67;;;;;;;8.08;92.14;101010.38;5058038;28;20761;-82
2022/04/15 03:01:50;;;;;;;9.67;8.83;;;;;;;7.97;92.48;101020.78;5057971;28;20221;-81
2022/04/15 03:04:17;;;;;;;9.47;8.40;;;;;;;7.94;91.50;101033.75;5057857;28;20733;-82
2022/04/15 03:06:45;;;;;;;8.30;7.50;;;;;;;7.84;90.95;101061.44;5057574;28;20288;-82
2022/04/15 03:09:12;;;;;;;7.23;6.63;;;;;;;7.74;89.53;101094.34;5058293;28;20221;-82
2022/04/15 03:11:39;;;;;;;7.47;6.90;;;;;;;7.70;89.36;101102.13;5058549;28;20229;-82
2022/04/15 03:14:06;;;;;;;7.37;6.77;;;;;;;7.76;89.42;101110.81;5057856;28;20233;-82
2022/04/15 03:16:33;;;;;;;7.53;6.83;;;;;;;7.74;88.88;101128.13;5057992;28;20229;-82
2022/04/15 03:18:59;;;;;;;7.37;6.67;;;;;;;7.73;88.76;101130.72;5058138;28;20584;-82
2022/04/15 03:21:26;;;;;;;6.20;5.70;;;;;;;7.66;87.89;101147.16;5057531;28;20203;-82
2022/04/15 03:23:54;;;;;;;6.73;6.13;;;;;;;7.64;88.56;101141.09;5057554;28;20232;-82
2022/04/15 03:26:21;;;;;;;6.67;6.17;;;;;;;7.70;87.64;101141.09;5057711;28;20217;-82
2022/04/15 03:28:49;;;;;;;7.20;6.60;;;;;;;7.53;89.11;101144.50;5057751;28;20233;-81
2022/04/15 03:31:15;;;;;;;6.63;6.03;;;;;;;7.76;88.42;101134.19;5058042;28;20273;-81
2022/04/15 03:33:42;;;;;;;7.97;6.40;;;;;;;7.77;88.28;101166.28;5056758;28;20626;-82
2022/04/15 03:36:11;;;;;;;7.37;6.73;;;;;;;7.76;87.56;101161.91;5057982;28;20229;-82
2022/04/15 03:38:45;;;;;;;8.23;6.30;;;;;;;7.65;88.01;101155.78;5057463;28;20733;-82
2022/04/15 03:41:17;;;;;;;7.37;6.67;;;;;;;7.58;89.04;101147.13;5057545;28;20209;-82
2022/04/15 03:43:47;;;;;;;7.23;6.73;;;;;;;7.73;87.88;101144.59;5057458;28;20257;-82
2022/04/15 03:46:22;;;;;;;6.90;6.40;;;;;;;7.73;87.11;101157.59;5056892;28;20239;-82
2022/04/15 03:48:51;;;;;;;7.00;6.40;;;;;;;7.65;87.82;101158.41;5058475;28;20204;-82
2022/04/15 03:51:17;;;;;;;7.07;6.33;;;;;;;7.82;87.46;101161.94;5057151;28;20229;-82
2022/04/15 03:53:45;;;;;;;7.17;6.57;;;;;;;7.87;87.97;101172.34;5056686;28;20206;-82
2022/04/15 03:56:11;;;;;;;6.93;6.33;;;;;;;7.86;87.05;101174.09;5057186;28;20232;-83
2022/04/15 03:58:39;;;;;;;7.63;6.93;;;;;;;7.88;87.53;101180.16;5057223;28;20195;-82
2022/04/15 04:01:10;;;;;;;6.87;6.27;;;;;;;7.77;87.31;101179.28;5058073;28;20208;-83
2022/04/15 04:03:37;;;;;;;6.53;5.70;;;;;;;7.95;87.29;101176.72;5058330;28;20234;-82
2022/04/15 04:06:04;;;;;;;8.10;6.30;;;;;;;8.08;86.53;101194.97;5058333;28;20250;-82
2022/04/15 04:08:30;;;;;;;7.33;6.53;;;;;;;8.05;86.60;101205.38;5059132;28;20205;-83
2022/04/15 04:10:58;;;;;;;7.07;6.57;;;;;;;8.01;86.85;101190.59;5058298;28;20210;-83
2022/04/15 04:13:24;;;;;;;7.10;6.50;;;;;;;8.05;86.74;101197.56;5058997;28;20212;-83
2022/04/15 04:15:52;;;;;;;6.77;6.17;;;;;;;8.16;86.21;101201.06;5058135;28;20265;-82
2022/04/15 04:18:22;;;;;;;7.20;6.60;;;;;;;8.12;85.74;101213.19;5057839;28;20211;-82
2022/04/15 04:20:51;;;;;;;7.77;7.10;;;;;;;8.26;86.58;101215.81;5059275;28;20245;-83
2022/04/15 04:23:22;;;;;;;8.47;7.67;;;;;;;8.28;86.37;101216.69;5065011;28;20197;-84
2022/04/15 04:25:48;;;;;;;8.60;7.90;;;;;;;8.19;86.14;101226.22;5074419;28;20208;-83
2022/04/15 04:28:14;;;;;;;9.63;8.70;;;;;;;8.28;86.45;101219.28;5074318;28;20186;-83
2022/04/15 04:30:42;;;;;;;11.77;10.70;;;;;;;8.44;85.46;101246.25;5065251;28;20199;-83
2022/04/15 04:33:12;;;;;;;12.13;11.20;;;;;;;8.60;84.22;101280.13;5056605;28;20232;-83
2022/04/15 04:35:38;;;;;;;12.23;11.33;;;;;;;8.70;83.73;101308.81;5048563;28;20224;-82
2022/04/15 04:38:06;;;;;;;13.07;12.03;;;;;;;8.58;83.82;101326.97;5045980;28;20202;-81
2022/04/15 04:40:33;;;;;;;11.40;10.50;;;;;;;8.44;83.89;101329.50;5046888;28;20280;-82
2022/04/15 04:42:59;;;;;;;11.27;10.37;;;;;;;8.41;83.28;101321.72;5045213;28;20199;-81
2022/04/15 04:45:32;;;;;;;12.10;11.03;;;;;;;8.40;83.62;101319.06;5044686;28;20238;-83
2022/04/15 04:48:03;;;;;;;11.30;10.40;;;;;;;8.35;83.73;101339.88;5035665;28;20549;-83
2022/04/15 04:50:39;;;;;;;10.40;9.57;;;;;;;8.15;83.71;101330.22;5038956;28;20579;-83
2022/04/15 04:53:08;;;;;;;9.13;8.33;;;;;;;8.07;84.18;101302.44;5047109;28;20222;-82
2022/04/15 04:55:35;;;;;;;9.17;8.33;;;;;;;7.88;84.60;101311.88;5044414;28;20276;-80
2022/04/15 04:58:03;;;;;;;10.03;9.23;;;;;;;7.91;85.10;101319.69;5042895;28;20213;-80
2022/04/15 05:00:29;;;;;;;8.67;7.90;;;;;;;7.85;84.89;101299.72;5049065;28;20208;-79
2022/04/15 05:02:56;;;;;;;7.73;7.13;;;;;;;7.68;85.64;101302.19;5047495;28;20197;-82
2022/04/15 05:05:22;;;;;;;6.63;6.13;;;;;;;7.65;85.98;101281.41;5056440;28;20230;-81
2022/04/15 05:07:50;;;;;;;7.53;6.93;;;;;;;7.68;85.99;101273.63;5055038;28;20685;-83
2022/04/15 05:10:16;;;;;;;6.60;6.10;;;;;;;7.69;85.96;101277.09;5056779;28;20278;-82
2022/04/15 05:12:46;;;;;;;6.30;5.80;;;;;;;7.69;86.17;101280.56;5055662;28;20275;-81
2022/04/15 05:15:15;;;;;;;6.60;6.10;;;;;;;7.74;85.66;101285.78;5054467;28;20241;-81
2022/04/15 05:17:41;;;;;;;7.50;7.00;;;;;;;7.85;86.10;101273.75;5054938;28;20238;-83
2022/04/15 05:20:10;;;;;;;6.77;6.23;;;;;;;7.91;86.08;101272.91;5055461;28;20221;-82
2022/04/15 05:22:36;;;;;;;7.03;6.53;;;;;;;7.91;86.33;101281.56;5055906;28;20232;-82
2022/04/15 05:25:06;;;;;;;7.43;6.83;;;;;;;7.74;86.51;101265.00;5054879;28;20212;-82
2022/04/15 05:27:33;;;;;;;7.23;6.63;;;;;;;7.85;86.76;101258.13;5049267;28;20631;-82
2022/04/15 05:29:59;;;;;;;7.07;6.33;;;;;;;7.86;86.97;101259.88;5054799;28;20292;-82
2022/04/15 05:32:26;;;;;;;7.07;6.57;;;;;;;7.99;86.89;101265.13;5058970;28;20594;-81
2022/04/15 05:34:52;;;;;;;7.40;6.80;;;;;;;8.01;86.89;101261.69;5058697;28;20213;-81
2022/04/15 05:37:18;;;;;;;7.03;6.53;;;;;;;8.02;86.76;101283.34;5058146;28;20222;-82
2022/04/15 05:39:45;;;;;;;6.83;6.33;;;;;;;7.83;87.00;101291.06;5059124;28;20604;-81
2022/04/15 05:42:13;;;;;;;7.80;7.17;;;;;;;7.83;88.00;101254.66;5058367;28;20211;-80
2022/04/15 05:44:41;;;;;;;7.30;6.80;;;;;;;7.76;88.05;101243.34;5058638;28;20230;-81
2022/04/15 05:47:08;;;;;;;7.57;7.00;;;;;;;7.62;89.58;101225.94;5058229;28;20299;-81
2022/04/15 05:49:35;;;;;;;7.40;6.80;;;;;;;7.38;90.78;101185.97;5057685;28;20209;-81
2022/04/15 05:52:05;;;;;;;7.90;7.20;;;;;;;7.44;91.54;101160.03;5057960;28;20232;-81
2022/04/15 05:54:31;;;;;;;7.80;7.10;;;;;;;7.31;92.51;101161.72;5058043;28;20228;-81
2022/04/15 05:56:58;;;;;;;7.43;6.70;;;;;;;7.25;92.04;101143.47;5054993;28;20234;-79
2022/04/15 05:59:25;;;;;;;7.37;6.77;;;;;;;7.22;93.08;101127.88;5056188;28;20206;-80
2022/04/15 06:01:52;;;;;;;7.80;7.07;;;;;;;7.27;93.41;101118.38;5059540;28;20250;-81
2022/04/15 06:04:18;;;;;;;7.33;6.70;;;;;;;7.28;93.90;101116.66;5058949;28;20210;-81
2022/04/15 06:06:46;;;;;;;8.00;7.33;;;;;;;7.41;93.73;101120.19;5057688;28;20308;-81
2022/04/15 06:09:13;;;;;;;8.27;7.57;;;;;;;7.19;94.62;101108.81;5055620;28;20201;-81
2022/04/15 06:11:41;;;;;;;7.50;6.80;;;;;;;7.25;95.18;101094.13;5059210;28;20194;-81
2022/04/15 06:14:08;;;;;;;7.60;6.90;;;;;;;7.21;95.30;101086.31;5058939;28;20291;-81
2022/04/15 06:16:37;;;;;;;7.77;7.17;;;;;;;7.17;96.35;101075.03;5058644;28;20231;-81
2022/04/15 06:19:06;;;;;;;8.00;7.20;;;;;;;7.13;95.92;101068.09;5058732;28;20608;-81
2022/04/15 06:21:33;;;;;;;7.70;7.10;;;;;;;6.98;97.24;101058.53;5059196;28;20210;-81
2022/04/15 06:23:59;;;;;;;7.37;6.77;;;;;;;6.98;97.84;101053.34;5059156;28;20240;-81
2022/04/15 06:26:26;;;;;;;7.40;6.80;;;;;;;7.16;97.73;101050.81;5059039;28;20286;-81
2022/04/15 06:28:53;;;;;;;7.07;6.53;;;;;;;7.27;97.51;101062.97;5040622;28;20592;-81
2022/04/15 06:31:21;;;;;;;7.70;7.00;;;;;;;7.20;97.44;101069.03;5056102;28;20214;-81
2022/04/15 06:33:49;;;;;;;9.13;8.33;;;;;;;7.12;97.75;101069.84;5050043;28;20218;-81
2022/04/15 06:36:16;;;;;;;10.40;9.40;;;;;;;7.13;97.72;101070.69;5049589;28;20635;-81
2022/04/15 06:38:42;;;;;;;10.53;9.53;;;;;;;7.26;98.03;101066.47;5052040;28;20206;-82
2022/04/15 06:41:08;;;;;;;11.20;10.30;;;;;;;7.34;97.31;101072.56;5053344;28;20205;-81
2022/04/15 06:43:35;;;;;;;13.87;12.63;;;;;;;7.36;96.44;101089.00;5057654;28;20205;-80
2022/04/15 06:46:03;;;;;;;13.10;11.90;;;;;;;7.24;97.02;101078.56;5058435;28;20229;-81
2022/04/15 06:48:29;;;;;;;15.30;13.80;;;;;;;7.36;96.75;101087.28;5058862;28;20209;-82
2022/04/15 06:53:24;;;;;;;13.27;11.97;;;;;;;7.64;94.60;101141.94;5094431;28;20228;-82
2022/04/15 06:55:51;;;;;;;12.77;11.67;;;;;;;7.70;93.71;101162.75;5089409;28;20231;-82
2022/04/15 06:58:18;;;;;;;12.73;11.57;;;;;;;7.79;93.29;101198.34;5091052;28;20458;-82
2022/04/15 07:00:45;;;;;;;11.80;10.73;;;;;;;7.85;91.02;101219.16;5085130;28;20232;-80
2022/04/15 07:03:12;;;;;;;11.97;10.90;;;;;;;7.52;92.51;101219.81;5076600;28;20692;-81
2022/04/15 07:05:39;;;;;;;14.37;11.50;;;;;;;7.50;92.81;101206.81;5076048;28;20669;-81
2022/04/15 07:08:09;;;;;;;10.90;9.90;;;;;;;7.67;92.00;101213.84;5065579;28;20202;-82
2022/04/15 07:10:38;;;;;;;12.30;11.20;;;;;;;7.87;92.16;101227.81;5067453;28;20229;-81
2022/04/15 07:13:05;;;;;;;11.43;10.43;;;;;;;7.93;91.27;101256.44;5077715;28;20229;-80
2022/04/15 07:15:31;;;;;;;12.80;10.57;;;;;;;8.01;91.21;101256.50;5077285;28;20204;-81
2022/04/15 07:17:59;;;;;;;9.90;9.10;;;;;;;8.07;89.47;101292.06;5077336;28;20213;-82
2022/04/15 07:20:26;;;;;;;10.43;9.57;;;;;;;8.03;88.59;101337.97;5078097;28;20224;-80
2022/04/15 07:22:55;;;;;;;9.43;8.73;;;;;;;8.19;88.29;101348.47;5077811;28;20744;-82
2022/04/15 07:25:22;;;;;;;9.60;8.80;;;;;;;8.04;87.80;101362.22;5077687;28;20694;-82
2022/04/15 07:27:49;;;;;;;11.70;10.10;;;;;;;8.18;88.22;101359.72;5073443;28;20235;-82
2022/04/15 07:30:17;;;;;;;9.73;9.03;;;;;;;8.32;88.18;101335.53;5074137;28;20304;-82
2022/04/15 07:32:44;;;;;;;9.90;9.10;;;;;;;8.18;87.75;101331.97;5077820;28;20225;-80
2022/04/15 07:35:10;;;;;;;9.03;8.33;;;;;;;8.23;88.39;101330.28;5077719;28;20225;-82
2022/04/15 07:37:37;;;;;;;10.37;9.57;;;;;;;8.35;88.19;101330.31;5074882;28;20259;-79
2022/04/15 07:40:04;;;;;;;10.07;9.13;;;;;;;8.49;87.15;101337.34;5077647;28;20292;-82
2022/04/15 07:42:31;;;;;;;8.30;7.70;;;;;;;8.30;86.07;101386.66;5077158;28;20201;-81
2022/04/15 07:44:58;;;;;;;7.50;7.00;;;;;;;8.44;85.21;101420.56;5077957;28;20728;-82
2022/04/15 07:47:26;;;;;;;8.77;8.07;;;;;;;8.61;84.62;101446.72;5075710;28;20275;-78
2022/04/15 07:49:52;;;;;;;6.40;6.00;;;;;;;8.71;82.66;101486.66;5074698;28;20256;-79
2022/04/15 07:52:19;;;;;;;6.80;6.30;;;;;;;8.61;83.22;101493.56;5077167;28;20227;-81
2022/04/15 07:54:46;;;;;;;7.67;7.07;;;;;;;8.71;83.73;101477.13;5077693;28;20208;-83
2022/04/15 07:57:12;;;;;;;6.87;6.37;;;;;;;8.48;83.68;101496.94;5077424;28;20254;-81
2022/04/15 07:59:39;;;;;;;8.17;7.50;;;;;;;8.61;84.25;101477.94;5069127;28;20198;-82
2022/04/15 08:02:07;;;;;;;7.17;6.57;;;;;;;8.76;83.33;101495.38;5076912;28;20210;-79
2022/04/15 08:04:34;;;;;;;6.97;6.47;;;;;;;8.86;82.96;101517.09;5075887;28;20201;-81
2022/04/15 08:07:01;;;;;;;7.73;7.13;;;;;;;8.85;82.43;101536.22;5073007;28;20210;-80
2022/04/15 08:09:27;;;;;;;7.40;6.80;;;;;;;9.02;82.56;101529.38;5059315;28;20207;-81
2022/04/15 08:11:54;;;;;;;6.50;6.00;;;;;;;9.14;81.75;101538.97;5068296;28;20207;-81
2022/04/15 08:14:21;;;;;;;6.53;5.97;;;;;;;9.00;81.04;101587.50;5076567;28;20253;-80
2022/04/15 08:16:47;;;;;;;5.77;5.37;;;;;;;9.03;81.85;101575.38;5067795;28;20725;-81
2022/04/15 08:19:15;;;;;;;6.87;6.30;;;;;;;9.15;82.07;101571.97;5077293;28;20208;-79
2022/04/15 08:21:41;;;;;;;6.77;6.10;;;;;;;9.24;81.13;101592.84;5077815;28;20642;-80
2022/04/15 08:24:08;;;;;;;6.27;5.87;;;;;;;9.34;80.43;101612.03;5076164;28;20271;-80
2022/04/15 08:26:34;;;;;;;7.40;6.83;;;;;;;9.28;79.84;101633.69;5076727;28;20243;-80
2022/04/15 08:29:01;;;;;;;6.47;5.97;;;;;;;9.31;79.79;101648.47;5068960;28;20367;-80
2022/04/15 08:31:27;;;;;;;6.13;5.73;;;;;;;9.46;79.84;101647.69;5076443;28;20220;-80
2022/04/15 08:33:54;;;;;;;6.13;5.73;;;;;;;9.25;78.87;101658.84;5076558;28;20249;-81
2022/04/15 08:36:22;;;;;;;5.27;4.97;;;;;;;9.27;79.71;101673.63;5077487;28;20204;-79
2022/04/15 08:38:48;;;;;;;6.83;6.33;;;;;;;9.39;80.07;101635.47;5077035;28;20699;-81
2022/04/15 08:41:15;;;;;;;6.70;6.20;;;;;;;9.47;79.22;101652.91;5077041;28;20705;-81
2022/04/15 08:43:42;;;;;;;6.43;6.03;;;;;;;9.43;80.09;101660.69;5076314;28;20212;-81
2022/04/15 08:46:10;;;;;;;7.23;6.63;;;;;;;9.34;79.51;101656.31;5077049;28;20206;-81
2022/04/15 08:48:38;;;;;;;6.70;6.20;;;;;;;9.49;79.79;101645.97;5076393;28;20255;-81
2022/04/15 08:51:05;;;;;;;7.20;6.70;;;;;;;9.53;80.08;101652.94;5075844;28;20222;-82
2022/04/15 08:53:34;;;;;;;7.37;6.77;;;;;;;9.64;80.31;101644.31;5076410;28;20209;-81
2022/04/15 08:56:01;;;;;;;6.90;6.40;;;;;;;9.59;78.83;101675.53;5075265;28;20211;-79
2022/04/15 08:58:27;;;;;;;7.57;6.97;;;;;;;9.69;77.91;101699.94;5067571;28;20214;-80
2022/04/15 09:00:54;;;;;;;7.20;6.70;;;;;;;9.78;77.94;101723.44;5072850;28;20302;-81
2022/04/15 09:03:20;;;;;;;7.57;6.97;;;;;;;9.54;78.46;101725.06;5065111;28;20695;-79
2022/04/15 09:05:51;;;;;;;7.47;6.97;;;;;;;9.58;79.29;101692.06;5066484;28;20249;-79
2022/04/15 09:08:17;;;;;;;8.37;7.77;;;;;;;9.64;80.24;101653.00;5070432;28;20196;-79
2022/04/15 09:10:55;;;;;;;9.70;8.97;;;;;;;9.62;79.58;101675.56;5069846;28;20222;-80
2022/04/15 09:13:23;;;;;;;9.23;8.53;;;;;;;9.69;80.20;101673.84;5069952;28;20275;-80
2022/04/15 09:15:50;;;;;;;9.27;8.53;;;;;;;9.70;79.62;101680.81;5069841;28;20201;-81
2022/04/15 09:18:32;;;;;;;9.60;8.90;;;;;;;9.86;79.71;101681.75;5068815;28;20197;-78
2022/04/15 09:21:18;;;;;;;9.63;8.93;;;;;;;9.82;79.18;101704.34;5065831;28;20221;-80
2022/04/15 09:23:48;;;;;;;9.90;9.10;;;;;;;9.91;79.12;101709.63;5063777;28;20207;-78
2022/04/15 09:26:17;;;;;;;9.63;8.83;;;;;;;9.89;78.64;101727.00;5059071;28;20269;-80
2022/04/15 09:28:44;;;;;;;10.37;9.40;;;;;;;10.02;77.92;101745.31;5068187;28;20249;-79
2022/04/15 09:31:13;;;;;;;9.27;8.57;;;;;;;10.15;78.63;101741.88;5082265;28;20229;-79
2022/04/15 09:33:50;;;;;;;10.47;9.67;;;;;;;10.14;77.12;101758.38;5084288;28;20230;-80
2022/04/15 09:36:25;;;;;;;10.30;9.40;;;;;;;10.05;76.48;101795.75;5079122;28;20264;-80
2022/04/15 09:38:56;;;;;;;10.00;9.40;;;;;;;10.10;76.63;101798.38;5079652;28;20191;-81
2022/04/15 09:41:25;;;;;;;9.60;8.80;;;;;;;10.11;76.75;101802.75;5073515;28;20222;-78
2022/04/15 09:43:52;;;;;;;11.57;10.70;;;;;;;10.14;77.24;101785.34;5069862;28;20252;-81
2022/04/15 09:46:20;;;;;;;11.57;10.53;;;;;;;10.00;77.89;101775.72;5076002;28;20277;-81
2022/04/15 09:49:06;;;;;;;10.87;10.07;;;;;;;9.95;77.46;101765.28;5069697;28;20621;-82
2022/04/15 09:51:35;;;;;;;10.93;10.13;;;;;;;10.16;78.26;101759.28;5069690;28;20715;-80
2022/04/15 09:54:05;;;;;;;11.13;10.33;;;;;;;10.09;78.41;101754.91;5068713;28;20277;-82
2022/04/15 09:56:35;;;;;;;11.50;10.70;;;;;;;10.20;77.82;101767.97;5070012;28;20559;-82
2022/04/15 09:59:08;;;;;;;12.63;11.67;;;;;;;10.15;77.02;101791.47;5070507;28;20201;-82
2022/04/15 10:01:37;;;;;;;11.73;10.83;;;;;;;10.31;77.42;101779.38;5069015;28;20221;-80
2022/04/15 10:04:05;;;;;;;12.17;11.20;;;;;;;10.36;77.87;101775.03;5068456;28;20654;-80
2022/04/15 10:06:32;;;;;;;11.63;10.63;;;;;;;10.56;77.70;101772.47;5065829;28;20717;-81
2022/04/15 10:09:02;;;;;;;10.70;9.93;;;;;;;10.39;77.91;101762.00;5058889;28;20258;-79
2022/04/15 10:11:31;;;;;;;11.27;10.37;;;;;;;10.50;76.35;101816.84;5058259;28;20229;-81
2022/04/15 10:13:59;;;;;;;11.03;10.13;;;;;;;10.47;76.53;101815.09;5057859;28;20256;-80
2022/04/15 10:16:26;;;;;;;11.00;10.13;;;;;;;10.65;76.30;101821.25;5056667;28;20280;-80
2022/04/15 10:18:53;;;;;;;9.90;9.10;;;;;;;10.78;76.08;101820.41;5058104;28;20200;-81
2022/04/15 10:21:20;;;;;;;10.20;9.40;;;;;;;10.94;75.77;101834.38;5059832;28;20257;-78
2022/04/15 10:23:47;;;;;;;9.93;9.13;;;;;;;10.83;76.31;101834.38;5057754;28;20210;-81
2022/04/15 10:26:13;;;;;;;9.57;8.73;;;;;;;10.80;75.65;101843.91;5058642;28;20422;-80
2022/04/15 10:28:44;;;;;;;9.73;9.03;;;;;;;10.63;75.44;101859.56;5066417;28;20272;-80
2022/04/15 10:31:16;;;;;;;9.63;8.93;;;;;;;10.79;74.54;101887.47;5078770;28;20282;-80
2022/04/15 10:33:43;;;;;;;8.77;8.07;;;;;;;10.93;74.37;101885.75;5078144;28;20211;-81
2022/04/15 10:36:15;;;;;;;9.67;8.97;;;;;;;11.07;74.19;101893.63;5078357;28;20199;-80
2022/04/15 10:39:12;;;;;;;10.27;9.40;;;;;;;11.04;74.21;101900.59;5077393;28;20607;-80
2022/04/15 10:41:53;;;;;;;10.47;9.57;;;;;;;11.24;74.20;101893.69;5077728;28;20226;-80
2022/04/15 10:44:29;;;;;;;10.17;9.23;;;;;;;11.32;72.86;101940.75;5077480;28;20194;-81
2022/04/15 10:47:04;;;;;;;10.57;9.77;;;;;;;11.33;72.45;101959.03;5077485;28;20205;-80
2022/04/15 10:49:31;;;;;;;9.63;8.83;;;;;;;11.28;72.88;101950.31;5077305;28;20741;-80
2022/04/15 10:52:02;;;;;;;10.37;9.57;;;;;;;11.29;72.70;101940.72;5077786;28;20211;-79
2022/04/15 10:54:30;;;;;;;10.67;9.63;;;;;;;11.35;72.57;101951.19;5077346;28;20570;-78
2022/04/15 10:57:02;;;;;;;11.13;10.33;;;;;;;11.27;72.92;101945.94;5077796;28;20666;-80
2022/04/15 11:02:18;;;;;;;10.33;9.47;;;;;;;11.32;73.53;101919.84;5077629;28;20205;-80
2022/04/15 11:04:49;;;;;;;10.10;9.23;;;;;;;11.20;73.66;101919.78;5076988;28;20208;-80
2022/04/15 11:07:25;;;;;;;9.47;8.77;;;;;;;11.46;73.42;101897.19;5076986;28;20298;-79
2022/04/15 11:09:51;;;;;;;9.07;8.33;;;;;;;11.91;72.37;101939.06;5077212;28;20228;-79
2022/04/15 11:12:29;;;;;;;9.50;8.77;;;;;;;11.96;71.60;101968.75;5077056;28;20651;-81
2022/04/15 11:14:56;;;;;;;10.17;9.37;;;;;;;11.98;70.50;101994.94;5077668;28;20223;-78
2022/04/15 11:17:36;;;;;;;9.73;8.93;;;;;;;11.85;70.32;102023.66;5078532;28;20236;-81
2022/04/15 11:20:05;;;;;;;8.70;7.70;;;;;;;11.96;70.74;101997.53;5077308;28;20321;-79
2022/04/15 11:22:32;;;;;;;9.27;8.57;;;;;;;11.88;72.12;101978.31;5076620;28;20218;-80
2022/04/15 11:24:59;;;;;;;8.57;7.87;;;;;;;12.04;69.46;102026.31;5076404;28;20234;-79
2022/04/15 11:27:27;;;;;;;7.43;6.70;;;;;;;12.26;69.86;102043.78;5075367;28;20203;-80
2022/04/15 11:29:53;;;;;;;9.00;8.30;;;;;;;12.14;69.15;102040.28;5078035;28;20241;-78
2022/04/15 11:32:20;;;;;;;8.00;7.40;;;;;;;12.04;69.50;102062.97;5089449;28;20227;-79
2022/04/15 11:34:54;;;;;;;7.97;7.33;;;;;;;12.15;68.40;102074.34;5091095;28;20249;-78